createdAt,value
2022-07-28T00:00:44.506Z,1012.06
2022-07-28T00:01:44.423Z,1012.07
2022-07-28T00:02:44.643Z,1012.06
2022-07-28T00:03:44.501Z,1012.06
2022-07-28T00:04:44.499Z,1012.00
2022-07-28T00:05:44.335Z,1012.05
2022-07-28T00:06:44.323Z,1012.05
2022-07-28T00:07:44.312Z,1012.06
2022-07-28T00:08:44.326Z,1012.04
2022-07-28T00:09:44.380Z,1012.01
2022-07-28T00:10:44.363Z,1012.02
2022-07-28T00:11:50.255Z,1012.03
2022-07-28T00:12:45.309Z,1012.06
2022-07-28T00:13:44.249Z,1012.04
2022-07-28T00:14:44.324Z,1012.09
2022-07-28T00:15:44.223Z,1012.09
2022-07-28T00:16:44.240Z,1012.12
2022-07-28T00:17:44.201Z,1012.12
2022-07-28T00:18:44.340Z,1012.10
2022-07-28T00:19:44.195Z,1012.09
2022-07-28T00:20:44.167Z,1012.11
2022-07-28T00:21:44.160Z,1012.10
2022-07-28T00:22:44.143Z,1012.09
2022-07-28T00:23:44.177Z,1012.04
2022-07-28T00:24:44.137Z,1012.09
2022-07-28T00:25:44.119Z,1012.02
2022-07-28T00:26:46.547Z,1012.07
2022-07-28T00:27:44.105Z,1012.05
2022-07-28T00:28:44.127Z,1012.03
2022-07-28T00:29:50.263Z,1012.03
2022-07-28T00:30:45.071Z,1012.00
2022-07-28T00:31:44.077Z,1012.04
2022-07-28T00:32:44.033Z,1012.02
2022-07-28T00:33:44.066Z,1012.00
2022-07-28T00:34:44.022Z,1012.01
2022-07-28T00:35:48.677Z,1012.03
2022-07-28T00:36:43.993Z,1012.00
2022-07-28T00:37:44.029Z,1012.02
2022-07-28T00:38:45.949Z,1012.00
2022-07-28T00:39:44.959Z,1012.00
2022-07-28T00:40:43.948Z,1011.98
2022-07-28T00:41:43.939Z,1012.00
2022-07-28T00:42:43.929Z,1012.01
2022-07-28T00:43:43.949Z,1012.02
2022-07-28T00:44:43.901Z,1012.01
2022-07-28T00:45:43.891Z,1012.03
2022-07-28T00:46:43.921Z,1011.99
2022-07-28T00:47:44.704Z,1011.99
2022-07-28T00:48:43.963Z,1012.00
2022-07-28T00:49:43.850Z,1011.95
2022-07-28T00:50:43.832Z,1011.99
2022-07-28T00:51:43.827Z,1011.95
2022-07-28T00:52:43.865Z,1011.96
2022-07-28T00:53:43.836Z,1011.97
2022-07-28T00:54:43.785Z,1011.94
2022-07-28T00:56:05.412Z,1011.97
2022-07-28T00:56:44.769Z,1011.97
2022-07-28T00:57:43.809Z,1012.00
2022-07-28T00:58:43.753Z,1012.06
2022-07-28T00:59:43.742Z,1012.04
2022-07-28T01:00:43.717Z,1012.07
2022-07-28T01:01:43.827Z,1012.03
2022-07-28T01:02:43.820Z,1012.06
2022-07-28T01:03:43.724Z,1012.04
2022-07-28T01:04:43.701Z,1012.08
2022-07-28T01:05:44.361Z,1012.06
2022-07-28T01:06:43.671Z,1012.06
2022-07-28T01:07:43.645Z,1012.08
2022-07-28T01:08:43.672Z,1012.03
2022-07-28T01:09:43.648Z,1012.06
2022-07-28T01:10:43.636Z,1012.04
2022-07-28T01:11:43.600Z,1012.05
2022-07-28T01:12:43.596Z,1012.04
2022-07-28T01:13:43.606Z,1012.04
2022-07-28T01:14:43.573Z,1011.99
2022-07-28T01:15:43.613Z,1012.00
2022-07-28T01:16:43.544Z,1012.01
2022-07-28T01:17:43.531Z,1012.00
2022-07-28T01:18:43.552Z,1011.99
2022-07-28T01:19:43.508Z,1011.97
2022-07-28T01:20:43.608Z,1011.98
2022-07-28T01:21:43.479Z,1012.00
2022-07-28T01:22:43.480Z,1011.99
2022-07-28T01:23:43.509Z,1012.00
2022-07-28T01:24:43.583Z,1012.02
2022-07-28T01:25:48.758Z,1012.01
2022-07-28T01:26:44.534Z,1012.01
2022-07-28T01:27:43.426Z,1011.95
2022-07-28T01:28:43.438Z,1012.04
2022-07-28T01:29:43.517Z,1012.06
2022-07-28T01:30:43.572Z,1012.04
2022-07-28T01:31:43.417Z,1012.03
2022-07-28T01:32:43.465Z,1012.05
2022-07-28T01:33:43.461Z,1012.03
2022-07-28T01:34:43.364Z,1012.05
2022-07-28T01:35:43.328Z,1012.07
2022-07-28T01:36:43.327Z,1012.01
2022-07-28T01:37:43.315Z,1011.98
2022-07-28T01:38:43.323Z,1012.02
2022-07-28T01:39:43.383Z,1012.02
2022-07-28T01:40:43.270Z,1012.01
2022-07-28T01:41:43.268Z,1011.98
2022-07-28T01:42:43.374Z,1011.93
2022-07-28T01:43:43.268Z,1011.98
2022-07-28T01:44:43.239Z,1011.98
2022-07-28T01:45:43.214Z,1011.95
2022-07-28T01:46:43.273Z,1011.95
2022-07-28T01:47:43.188Z,1011.96
2022-07-28T01:48:45.585Z,1011.96
2022-07-28T01:49:43.162Z,1011.95
2022-07-28T01:50:43.181Z,1011.94
2022-07-28T01:51:43.139Z,1011.96
2022-07-28T01:52:43.135Z,1011.93
2022-07-28T01:53:43.163Z,1011.99
2022-07-28T01:54:43.108Z,1011.96
2022-07-28T01:55:43.122Z,1011.97
2022-07-28T01:56:43.098Z,1011.96
2022-07-28T01:57:43.076Z,1011.96
2022-07-28T01:58:43.101Z,1011.96
2022-07-28T01:59:43.048Z,1011.98
2022-07-28T02:00:43.045Z,1011.98
2022-07-28T02:01:43.138Z,1011.99
2022-07-28T02:02:43.020Z,1011.98
2022-07-28T02:03:43.039Z,1011.98
2022-07-28T02:04:43.057Z,1012.00
2022-07-28T02:05:42.988Z,1012.02
2022-07-28T02:06:42.967Z,1012.04
2022-07-28T02:07:42.967Z,1011.98
2022-07-28T02:08:42.984Z,1011.98
2022-07-28T02:09:42.945Z,1011.99
2022-07-28T02:10:42.935Z,1011.97
2022-07-28T02:11:42.926Z,1011.98
2022-07-28T02:12:42.909Z,1011.98
2022-07-28T02:13:42.923Z,1012.03
2022-07-28T02:14:42.891Z,1011.99
2022-07-28T02:15:42.930Z,1012.04
2022-07-28T02:16:42.863Z,1012.02
2022-07-28T02:17:42.847Z,1012.04
2022-07-28T02:18:42.871Z,1012.03
2022-07-28T02:19:42.845Z,1012.05
2022-07-28T02:20:42.815Z,1012.06
2022-07-28T02:21:42.797Z,1012.01
2022-07-28T02:22:42.813Z,1011.99
2022-07-28T02:23:42.830Z,1012.03
2022-07-28T02:24:42.830Z,1012.01
2022-07-28T02:25:42.773Z,1012.01
2022-07-28T02:26:42.764Z,1012.00
2022-07-28T02:27:42.749Z,1011.98
2022-07-28T02:28:42.745Z,1011.98
2022-07-28T02:29:50.835Z,1011.96
2022-07-28T02:30:43.781Z,1012.00
2022-07-28T02:31:42.710Z,1011.97
2022-07-28T02:32:42.805Z,1011.96
2022-07-28T02:33:59.324Z,1011.97
2022-07-28T02:34:43.747Z,1012.01
2022-07-28T02:35:42.663Z,1012.00
2022-07-28T02:36:42.667Z,1011.97
2022-07-28T02:37:42.629Z,1011.98
2022-07-28T02:38:42.630Z,1012.00
2022-07-28T02:39:42.671Z,1012.02
2022-07-28T02:40:43.603Z,1012.01
2022-07-28T02:41:42.669Z,1011.98
2022-07-28T02:42:42.614Z,1011.98
2022-07-28T02:43:50.084Z,1012.02
2022-07-28T02:44:43.637Z,1012.04
2022-07-28T02:45:42.541Z,1012.04
2022-07-28T02:46:42.588Z,1012.01
2022-07-28T02:47:42.551Z,1012.07
2022-07-28T02:48:42.539Z,1012.06
2022-07-28T02:49:42.549Z,1012.03
2022-07-28T02:50:42.500Z,1012.06
2022-07-28T02:51:42.575Z,1012.04
2022-07-28T02:52:42.475Z,1012.06
2022-07-28T02:53:42.455Z,1012.04
2022-07-28T02:54:42.487Z,1012.07
2022-07-28T02:55:42.427Z,1012.07
2022-07-28T02:56:42.439Z,1012.05
2022-07-28T02:57:43.410Z,1012.11
2022-07-28T02:58:42.415Z,1012.09
2022-07-28T02:59:42.575Z,1012.12
2022-07-28T03:00:42.394Z,1012.18
2022-07-28T03:01:42.451Z,1012.18
2022-07-28T03:02:42.381Z,1012.23
2022-07-28T03:03:44.158Z,1012.26
2022-07-28T03:04:42.584Z,1012.25
2022-07-28T03:05:42.400Z,1012.25
2022-07-28T03:06:42.314Z,1012.27
2022-07-28T03:07:50.675Z,1012.28
2022-07-28T03:08:43.429Z,1012.32
2022-07-28T03:09:42.344Z,1012.25
2022-07-28T03:10:42.269Z,1012.28
2022-07-28T03:11:42.284Z,1012.33
2022-07-28T03:12:42.243Z,1012.33
2022-07-28T03:13:42.296Z,1012.34
2022-07-28T03:14:42.262Z,1012.34
2022-07-28T03:15:42.206Z,1012.37
2022-07-28T03:16:42.291Z,1012.36
2022-07-28T03:17:42.181Z,1012.38
2022-07-28T03:18:42.189Z,1012.32
2022-07-28T03:19:42.206Z,1012.37
2022-07-28T03:20:42.149Z,1012.37
2022-07-28T03:21:42.155Z,1012.41
2022-07-28T03:22:42.176Z,1012.35
2022-07-28T03:23:42.125Z,1012.37
2022-07-28T03:24:42.118Z,1012.35
2022-07-28T03:25:42.144Z,1012.36
2022-07-28T03:26:42.096Z,1012.39
2022-07-28T03:27:42.070Z,1012.36
2022-07-28T03:28:42.073Z,1012.40
2022-07-28T03:29:42.039Z,1012.32
2022-07-28T03:30:42.133Z,1012.40
2022-07-28T03:31:42.033Z,1012.43
2022-07-28T03:32:42.039Z,1012.42
2022-07-28T03:33:42.008Z,1012.42
2022-07-28T03:34:42.003Z,1012.43
2022-07-28T03:35:42.032Z,1012.45
2022-07-28T03:36:41.969Z,1012.44
2022-07-28T03:37:41.976Z,1012.46
2022-07-28T03:38:41.952Z,1012.50
2022-07-28T03:39:41.933Z,1012.49
2022-07-28T03:40:41.965Z,1012.48
2022-07-28T03:41:41.914Z,1012.49
2022-07-28T03:42:41.921Z,1012.45
2022-07-28T03:43:41.895Z,1012.47
2022-07-28T03:44:41.882Z,1012.50
2022-07-28T03:45:41.924Z,1012.49
2022-07-28T03:46:41.895Z,1012.47
2022-07-28T03:47:41.851Z,1012.50
2022-07-28T03:48:41.867Z,1012.52
2022-07-28T03:49:41.817Z,1012.53
2022-07-28T03:50:41.845Z,1012.54
2022-07-28T03:51:41.901Z,1012.53
2022-07-28T03:52:41.799Z,1012.57
2022-07-28T03:53:41.775Z,1012.59
2022-07-28T03:54:41.754Z,1012.60
2022-07-28T03:55:41.811Z,1012.58
2022-07-28T03:56:41.756Z,1012.59
2022-07-28T03:57:41.747Z,1012.59
2022-07-28T03:58:41.733Z,1012.56
2022-07-28T03:59:41.707Z,1012.60
2022-07-28T04:00:41.842Z,1012.60
2022-07-28T04:01:41.732Z,1012.60
2022-07-28T04:02:41.808Z,1012.59
2022-07-28T04:03:43.804Z,1012.59
2022-07-28T04:04:41.669Z,1012.61
2022-07-28T04:05:41.681Z,1012.60
2022-07-28T04:06:41.658Z,1012.59
2022-07-28T04:07:41.650Z,1012.64
2022-07-28T04:08:41.613Z,1012.67
2022-07-28T04:09:41.693Z,1012.64
2022-07-28T04:10:41.628Z,1012.66
2022-07-28T04:11:41.576Z,1012.67
2022-07-28T04:12:41.691Z,1012.71
2022-07-28T04:13:41.543Z,1012.68
2022-07-28T04:14:41.646Z,1012.65
2022-07-28T04:15:41.630Z,1012.62
2022-07-28T04:16:41.564Z,1012.66
2022-07-28T04:17:42.384Z,1012.68
2022-07-28T04:18:41.616Z,1012.68
2022-07-28T04:19:41.578Z,1012.66
2022-07-28T04:20:41.639Z,1012.65
2022-07-28T04:21:41.457Z,1012.62
2022-07-28T04:22:41.467Z,1012.66
2022-07-28T04:23:41.437Z,1012.70
2022-07-28T04:24:41.426Z,1012.69
2022-07-28T04:25:41.469Z,1012.70
2022-07-28T04:26:41.424Z,1012.64
2022-07-28T04:27:41.401Z,1012.73
2022-07-28T04:28:41.515Z,1012.73
2022-07-28T04:29:41.465Z,1012.69
2022-07-28T04:30:44.269Z,1012.75
2022-07-28T04:31:41.353Z,1012.72
2022-07-28T04:32:41.341Z,1012.77
2022-07-28T04:33:41.321Z,1012.76
2022-07-28T04:34:41.332Z,1012.75
2022-07-28T04:35:41.389Z,1012.71
2022-07-28T04:36:41.309Z,1012.69
2022-07-28T04:37:41.280Z,1012.70
2022-07-28T04:38:41.291Z,1012.69
2022-07-28T04:39:41.258Z,1012.67
2022-07-28T04:40:41.283Z,1012.69
2022-07-28T04:41:41.339Z,1012.74
2022-07-28T04:42:41.232Z,1012.74
2022-07-28T04:43:41.227Z,1012.75
2022-07-28T04:44:41.225Z,1012.76
2022-07-28T04:45:45.953Z,1012.76
2022-07-28T04:46:42.292Z,1012.69
2022-07-28T04:47:42.069Z,1012.75
2022-07-28T04:48:41.167Z,1012.70
2022-07-28T04:49:41.143Z,1012.71
2022-07-28T04:50:41.172Z,1012.70
2022-07-28T04:51:41.121Z,1012.71
2022-07-28T04:52:41.139Z,1012.73
2022-07-28T04:53:41.155Z,1012.69
2022-07-28T04:54:41.109Z,1012.69
2022-07-28T04:55:41.176Z,1012.68
2022-07-28T04:56:41.094Z,1012.69
2022-07-28T04:57:41.079Z,1012.66
2022-07-28T04:58:41.073Z,1012.66
2022-07-28T04:59:41.026Z,1012.68
2022-07-28T05:00:41.049Z,1012.69
2022-07-28T05:01:41.159Z,1012.73
2022-07-28T05:02:41.029Z,1012.69
2022-07-28T05:03:41.014Z,1012.72
2022-07-28T05:04:41.032Z,1012.74
2022-07-28T05:05:40.969Z,1012.71
2022-07-28T05:06:41.028Z,1012.77
2022-07-28T05:07:40.963Z,1012.70
2022-07-28T05:08:40.937Z,1012.71
2022-07-28T05:09:40.936Z,1012.70
2022-07-28T05:10:40.914Z,1012.74
2022-07-28T05:11:40.949Z,1012.73
2022-07-28T05:12:40.903Z,1012.73
2022-07-28T05:13:40.876Z,1012.73
2022-07-28T05:14:40.888Z,1012.77
2022-07-28T05:15:40.889Z,1012.73
2022-07-28T05:16:40.954Z,1012.72
2022-07-28T05:17:40.852Z,1012.71
2022-07-28T05:18:40.831Z,1012.69
2022-07-28T05:19:40.814Z,1012.72
2022-07-28T05:20:40.819Z,1012.72
2022-07-28T05:21:40.822Z,1012.74
2022-07-28T05:22:40.830Z,1012.76
2022-07-28T05:23:44.335Z,1012.73
2022-07-28T05:24:41.745Z,1012.73
2022-07-28T05:25:40.743Z,1012.77
2022-07-28T05:26:40.787Z,1012.76
2022-07-28T05:27:40.729Z,1012.80
2022-07-28T05:28:40.726Z,1012.79
2022-07-28T05:29:40.716Z,1012.81
2022-07-28T05:30:41.699Z,1012.81
2022-07-28T05:31:40.755Z,1012.84
2022-07-28T05:32:40.696Z,1012.82
2022-07-28T05:33:40.665Z,1012.83
2022-07-28T05:34:40.646Z,1012.80
2022-07-28T05:35:40.675Z,1012.84
2022-07-28T05:36:40.685Z,1012.82
2022-07-28T05:37:40.614Z,1012.84
2022-07-28T05:38:40.604Z,1012.85
2022-07-28T05:39:40.630Z,1012.85
2022-07-28T05:40:40.605Z,1012.85
2022-07-28T05:41:40.615Z,1012.84
2022-07-28T05:42:40.580Z,1012.80
2022-07-28T05:43:40.567Z,1012.85
2022-07-28T05:44:40.543Z,1012.90
2022-07-28T05:45:40.589Z,1012.90
2022-07-28T05:46:40.525Z,1012.90
2022-07-28T05:47:40.522Z,1012.88
2022-07-28T05:48:40.557Z,1012.89
2022-07-28T05:49:40.477Z,1012.92
2022-07-28T05:50:40.457Z,1012.90
2022-07-28T05:51:41.963Z,1012.95
2022-07-28T05:52:40.457Z,1012.94
2022-07-28T05:53:40.439Z,1012.88
2022-07-28T05:54:40.434Z,1012.93
2022-07-28T05:55:57.797Z,1012.96
2022-07-28T05:56:41.462Z,1012.90
2022-07-28T05:57:40.460Z,1012.89
2022-07-28T05:58:40.377Z,1012.91
2022-07-28T05:59:40.369Z,1012.88
2022-07-28T06:00:40.478Z,1012.92
2022-07-28T06:01:40.431Z,1012.95
2022-07-28T06:02:40.448Z,1012.96
2022-07-28T06:03:42.504Z,1012.95
2022-07-28T06:04:40.335Z,1012.92
2022-07-28T06:05:59.230Z,1012.94
2022-07-28T06:06:41.317Z,1012.97
2022-07-28T06:07:42.891Z,1013.02
2022-07-28T06:08:40.238Z,1012.96
2022-07-28T06:09:44.896Z,1012.99
2022-07-28T06:10:41.231Z,1013.02
2022-07-28T06:11:40.257Z,1013.02
2022-07-28T06:12:40.204Z,1013.01
2022-07-28T06:13:40.226Z,1013.00
2022-07-28T06:14:40.224Z,1013.00
2022-07-28T06:15:40.193Z,1012.93
2022-07-28T06:16:40.260Z,1013.00
2022-07-28T06:17:40.187Z,1012.99
2022-07-28T06:18:40.155Z,1012.97
2022-07-28T06:19:40.133Z,1013.00
2022-07-28T06:20:40.198Z,1013.03
2022-07-28T06:21:41.499Z,1012.96
2022-07-28T06:22:40.205Z,1012.96
2022-07-28T06:23:40.095Z,1012.97
2022-07-28T06:24:40.141Z,1012.98
2022-07-28T06:25:40.115Z,1012.98
2022-07-28T06:26:44.430Z,1013.00
2022-07-28T06:27:40.057Z,1013.00
2022-07-28T06:28:40.139Z,1012.95
2022-07-28T06:29:40.027Z,1013.00
2022-07-28T06:30:40.048Z,1012.94
2022-07-28T06:31:40.200Z,1012.96
2022-07-28T06:32:39.988Z,1012.98
2022-07-28T06:33:40.036Z,1012.98
2022-07-28T06:34:39.955Z,1012.99
2022-07-28T06:35:48.324Z,1013.00
2022-07-28T06:36:41.100Z,1012.99
2022-07-28T06:37:39.937Z,1013.02
2022-07-28T06:38:40.025Z,1013.01
2022-07-28T06:39:39.922Z,1013.01
2022-07-28T06:40:39.940Z,1013.00
2022-07-28T06:41:39.933Z,1013.03
2022-07-28T06:42:39.966Z,1013.05
2022-07-28T06:43:39.894Z,1013.04
2022-07-28T06:44:57.820Z,1013.05
2022-07-28T06:45:40.847Z,1013.02
2022-07-28T06:46:40.071Z,1013.04
2022-07-28T06:47:41.622Z,1013.05
2022-07-28T06:48:40.865Z,1013.07
2022-07-28T06:49:39.807Z,1013.06
2022-07-28T06:50:39.883Z,1013.05
2022-07-28T06:51:39.823Z,1013.06
2022-07-28T06:52:39.781Z,1013.04
2022-07-28T06:53:39.782Z,1013.03
2022-07-28T06:54:39.744Z,1013.03
2022-07-28T06:55:41.367Z,1013.03
2022-07-28T06:56:39.782Z,1013.04
2022-07-28T06:57:39.721Z,1013.06
2022-07-28T06:58:39.818Z,1012.98
2022-07-28T06:59:39.705Z,1013.00
2022-07-28T07:00:39.754Z,1013.00
2022-07-28T07:01:39.665Z,1012.98
2022-07-28T07:02:39.714Z,1012.98
2022-07-28T07:03:39.673Z,1013.04
2022-07-28T07:04:39.721Z,1012.99
2022-07-28T07:05:39.671Z,1013.00
2022-07-28T07:06:39.644Z,1013.01
2022-07-28T07:07:43.010Z,1012.99
2022-07-28T07:08:39.656Z,1013.02
2022-07-28T07:09:39.588Z,1012.95
2022-07-28T07:10:39.688Z,1012.97
2022-07-28T07:11:39.597Z,1012.96
2022-07-28T07:12:39.608Z,1012.97
2022-07-28T07:13:39.567Z,1012.98
2022-07-28T07:14:39.649Z,1012.99
2022-07-28T07:15:39.528Z,1012.95
2022-07-28T07:16:39.588Z,1012.93
2022-07-28T07:17:39.554Z,1012.94
2022-07-28T07:18:39.495Z,1012.98
2022-07-28T07:19:39.481Z,1012.97
2022-07-28T07:20:39.520Z,1012.91
2022-07-28T07:21:39.450Z,1012.93
2022-07-28T07:22:39.495Z,1012.97
2022-07-28T07:23:39.454Z,1012.98
2022-07-28T07:24:39.430Z,1012.99
2022-07-28T07:25:39.413Z,1013.03
2022-07-28T07:26:39.384Z,1013.01
2022-07-28T07:27:39.436Z,1013.02
2022-07-28T07:28:39.388Z,1013.03
2022-07-28T07:29:39.362Z,1013.04
2022-07-28T07:30:39.399Z,1013.09
2022-07-28T07:31:39.380Z,1013.08
2022-07-28T07:32:39.376Z,1013.02
2022-07-28T07:33:39.325Z,1013.04
2022-07-28T07:34:39.338Z,1013.10
2022-07-28T07:35:39.310Z,1013.00
2022-07-28T07:36:39.293Z,1013.09
2022-07-28T07:37:39.296Z,1013.04
2022-07-28T07:38:39.284Z,1013.05
2022-07-28T07:39:39.269Z,1013.08
2022-07-28T07:40:39.231Z,1013.08
2022-07-28T07:41:39.234Z,1013.09
2022-07-28T07:42:39.283Z,1013.04
2022-07-28T07:43:39.231Z,1013.11
2022-07-28T07:44:39.234Z,1013.09
2022-07-28T07:45:39.198Z,1013.11
2022-07-28T07:46:39.232Z,1013.07
2022-07-28T07:47:39.199Z,1013.09
2022-07-28T07:48:39.208Z,1013.10
2022-07-28T07:49:45.294Z,1013.08
2022-07-28T07:50:40.146Z,1013.11
2022-07-28T07:51:39.120Z,1013.10
2022-07-28T07:52:39.158Z,1013.12
2022-07-28T07:53:39.111Z,1013.15
2022-07-28T07:54:39.094Z,1013.13
2022-07-28T07:55:39.082Z,1013.13
2022-07-28T07:56:39.087Z,1013.17
2022-07-28T07:57:39.143Z,1013.14
2022-07-28T07:58:39.061Z,1013.18
2022-07-28T07:59:39.075Z,1013.13
2022-07-28T08:00:39.030Z,1013.15
2022-07-28T08:01:40.553Z,1013.19
2022-07-28T08:02:39.054Z,1013.10
2022-07-28T08:03:38.977Z,1013.18
2022-07-28T08:04:39.181Z,1013.18
2022-07-28T08:05:39.001Z,1013.11
2022-07-28T08:06:38.976Z,1013.15
2022-07-28T08:07:39.016Z,1013.07
2022-07-28T08:08:45.051Z,1013.10
2022-07-28T08:09:39.926Z,1013.11
2022-07-28T08:10:38.940Z,1013.11
2022-07-28T08:11:38.938Z,1013.12
2022-07-28T08:12:38.980Z,1013.14
2022-07-28T08:13:38.915Z,1013.12
2022-07-28T08:14:38.901Z,1013.12
2022-07-28T08:15:38.882Z,1013.08
2022-07-28T08:16:38.923Z,1013.07
2022-07-28T08:17:38.926Z,1013.06
2022-07-28T08:18:38.852Z,1013.07
2022-07-28T08:19:38.849Z,1013.06
2022-07-28T08:20:38.818Z,1013.04
2022-07-28T08:21:38.828Z,1013.04
2022-07-28T08:22:38.833Z,1013.00
2022-07-28T08:23:38.806Z,1013.10
2022-07-28T08:24:38.791Z,1013.04
2022-07-28T08:25:38.789Z,1013.09
2022-07-28T08:26:38.758Z,1013.09
2022-07-28T08:27:38.783Z,1013.06
2022-07-28T08:28:38.724Z,1013.10
2022-07-28T08:29:38.745Z,1013.07
2022-07-28T08:30:38.726Z,1013.12
2022-07-28T08:31:38.795Z,1013.12
2022-07-28T08:32:38.734Z,1013.08
2022-07-28T08:33:54.212Z,1013.11
2022-07-28T08:34:39.720Z,1013.13
2022-07-28T08:35:38.699Z,1013.11
2022-07-28T08:36:38.815Z,1013.08
2022-07-28T08:37:38.698Z,1013.07
2022-07-28T08:38:38.713Z,1013.03
2022-07-28T08:39:38.654Z,1013.05
2022-07-28T08:40:38.635Z,1013.01
2022-07-28T08:41:38.600Z,1013.00
2022-07-28T08:42:38.790Z,1013.08
2022-07-28T08:43:38.647Z,1013.02
2022-07-28T08:44:38.677Z,1013.04
2022-07-28T08:45:38.546Z,1013.07
2022-07-28T08:46:38.610Z,1013.03
2022-07-28T08:47:58.802Z,1013.02
2022-07-28T08:48:39.546Z,1013.03
2022-07-28T08:49:39.303Z,1013.02
2022-07-28T08:50:38.594Z,1013.06
2022-07-28T08:51:38.545Z,1013.04
2022-07-28T08:52:38.578Z,1013.02
2022-07-28T08:53:38.468Z,1013.03
2022-07-28T08:54:38.432Z,1013.03
2022-07-28T08:55:38.471Z,1012.99
2022-07-28T08:56:38.449Z,1013.03
2022-07-28T08:57:38.434Z,1012.97
2022-07-28T08:58:38.463Z,1013.00
2022-07-28T08:59:38.420Z,1013.04
2022-07-28T09:00:38.393Z,1013.06
2022-07-28T09:01:39.140Z,1013.09
2022-07-28T09:02:38.473Z,1013.04
2022-07-28T09:03:38.491Z,1013.06
2022-07-28T09:04:38.370Z,1013.02
2022-07-28T09:05:38.402Z,1013.04
2022-07-28T09:06:38.453Z,1013.05
2022-07-28T09:07:38.331Z,1013.04
2022-07-28T09:08:38.376Z,1013.07
2022-07-28T09:09:38.346Z,1013.00
2022-07-28T09:10:38.372Z,1012.97
2022-07-28T09:11:38.308Z,1012.95
2022-07-28T09:12:38.275Z,1013.01
2022-07-28T09:13:38.547Z,1012.98
2022-07-28T09:14:38.284Z,1012.98
2022-07-28T09:15:38.342Z,1012.98
2022-07-28T09:16:38.256Z,1012.97
2022-07-28T09:17:38.245Z,1013.01
2022-07-28T09:18:38.355Z,1013.01
2022-07-28T09:19:38.291Z,1013.01
2022-07-28T09:20:38.324Z,1012.97
2022-07-28T09:21:38.230Z,1013.07
2022-07-28T09:22:38.278Z,1013.03
2022-07-28T09:23:43.213Z,1012.99
2022-07-28T09:24:39.264Z,1012.97
2022-07-28T09:25:38.168Z,1012.92
2022-07-28T09:26:38.228Z,1013.00
2022-07-28T09:27:38.112Z,1012.97
2022-07-28T09:28:38.168Z,1012.97
2022-07-28T09:29:38.242Z,1012.94
2022-07-28T09:30:38.121Z,1012.95
2022-07-28T09:31:39.109Z,1012.99
2022-07-28T09:32:38.142Z,1013.02
2022-07-28T09:33:42.270Z,1013.03
2022-07-28T09:34:39.177Z,1013.01
2022-07-28T09:35:38.101Z,1012.99
2022-07-28T09:36:38.162Z,1013.02
2022-07-28T09:37:38.009Z,1013.01
2022-07-28T09:38:38.145Z,1013.00
2022-07-28T09:39:38.020Z,1013.06
2022-07-28T09:40:37.999Z,1013.03
2022-07-28T09:41:38.002Z,1013.02
2022-07-28T09:42:37.963Z,1013.09
2022-07-28T09:43:38.103Z,1013.04
2022-07-28T09:44:37.948Z,1013.03
2022-07-28T09:45:37.954Z,1013.01
2022-07-28T09:46:38.146Z,1013.07
2022-07-28T09:47:38.122Z,1013.03
2022-07-28T09:48:38.092Z,1013.04
2022-07-28T09:49:37.990Z,1013.04
2022-07-28T09:50:37.901Z,1013.02
2022-07-28T09:51:37.974Z,1013.07
2022-07-28T09:52:37.884Z,1012.95
2022-07-28T09:53:37.912Z,1012.99
2022-07-28T09:54:40.985Z,1012.98
2022-07-28T09:55:37.907Z,1012.99
2022-07-28T09:56:37.896Z,1013.02
2022-07-28T09:57:37.809Z,1012.98
2022-07-28T09:58:37.870Z,1013.01
2022-07-28T09:59:37.791Z,1013.09
2022-07-28T10:00:37.799Z,1013.02
2022-07-28T10:01:37.788Z,1013.00
2022-07-28T10:02:37.919Z,1012.99
2022-07-28T10:03:37.794Z,1013.05
2022-07-28T10:04:37.741Z,1012.99
2022-07-28T10:05:37.905Z,1012.96
2022-07-28T10:06:37.750Z,1012.97
2022-07-28T10:07:37.732Z,1012.94
2022-07-28T10:08:37.786Z,1012.91
2022-07-28T10:09:37.728Z,1012.95
2022-07-28T10:10:37.691Z,1012.91
2022-07-28T10:11:41.596Z,1012.86
2022-07-28T10:12:37.670Z,1012.94
2022-07-28T10:13:37.643Z,1012.95
2022-07-28T10:14:37.718Z,1012.99
2022-07-28T10:15:37.684Z,1012.94
2022-07-28T10:16:38.206Z,1012.91
2022-07-28T10:17:37.649Z,1012.83
2022-07-28T10:18:37.589Z,1012.72
2022-07-28T10:19:37.626Z,1012.69
2022-07-28T10:20:37.619Z,1012.77
2022-07-28T10:21:37.583Z,1012.72
2022-07-28T10:22:42.739Z,1012.88
2022-07-28T10:23:38.601Z,1012.87
2022-07-28T10:24:37.627Z,1012.87
2022-07-28T10:25:37.542Z,1012.88
2022-07-28T10:26:37.549Z,1012.86
2022-07-28T10:27:37.510Z,1012.84
2022-07-28T10:28:42.128Z,1012.91
2022-07-28T10:29:38.595Z,1012.93
2022-07-28T10:30:37.535Z,1012.94
2022-07-28T10:31:37.492Z,1012.91
2022-07-28T10:32:37.492Z,1012.92
2022-07-28T10:33:37.456Z,1012.85
2022-07-28T10:34:37.530Z,1012.90
2022-07-28T10:35:51.034Z,1012.89
2022-07-28T10:36:38.446Z,1012.88
2022-07-28T10:37:37.419Z,1012.81
2022-07-28T10:38:37.441Z,1012.77
2022-07-28T10:39:37.440Z,1012.80
2022-07-28T10:40:37.396Z,1012.79
2022-07-28T10:41:37.411Z,1012.78
2022-07-28T10:42:37.367Z,1012.83
2022-07-28T10:43:37.358Z,1012.79
2022-07-28T10:44:38.387Z,1012.84
2022-07-28T10:46:03.206Z,1012.84
2022-07-28T10:46:38.384Z,1012.80
2022-07-28T10:47:37.348Z,1012.82
2022-07-28T10:48:37.336Z,1012.75
2022-07-28T10:49:37.369Z,1012.69
2022-07-28T10:50:37.320Z,1012.71
2022-07-28T10:51:53.903Z,1012.71
2022-07-28T10:52:47.258Z,1012.71
2022-07-28T10:53:38.264Z,1012.62
2022-07-28T10:54:37.329Z,1012.64
2022-07-28T10:55:37.235Z,1012.68
2022-07-28T10:56:37.314Z,1012.65
2022-07-28T10:57:37.318Z,1012.73
2022-07-28T10:58:37.233Z,1012.69
2022-07-28T10:59:37.318Z,1012.65
2022-07-28T11:00:54.613Z,1012.73
2022-07-28T11:01:53.628Z,1012.68
2022-07-28T11:02:38.256Z,1012.67
2022-07-28T11:03:37.269Z,1012.71
2022-07-28T11:04:37.229Z,1012.67
2022-07-28T11:05:37.163Z,1012.67
2022-07-28T11:06:37.178Z,1012.58
2022-07-28T11:07:37.248Z,1012.58
2022-07-28T11:08:37.128Z,1012.62
2022-07-28T11:09:37.116Z,1012.60
2022-07-28T11:10:37.207Z,1012.62
2022-07-28T11:11:37.202Z,1012.63
2022-07-28T11:12:37.263Z,1012.62
2022-07-28T11:13:41.026Z,1012.64
2022-07-28T11:14:39.081Z,1012.56
2022-07-28T11:15:37.122Z,1012.59
2022-07-28T11:16:37.235Z,1012.55
2022-07-28T11:17:37.232Z,1012.61
2022-07-28T11:18:37.055Z,1012.60
2022-07-28T11:19:46.681Z,1012.38
2022-07-28T11:20:38.102Z,1012.54
2022-07-28T11:21:39.801Z,1012.60
2022-07-28T11:22:37.070Z,1012.55
2022-07-28T11:23:36.960Z,1012.57
2022-07-28T11:24:37.062Z,1012.60
2022-07-28T11:25:36.996Z,1012.58
2022-07-28T11:26:37.040Z,1012.60
2022-07-28T11:27:37.016Z,1012.59
2022-07-28T11:28:36.939Z,1012.56
2022-07-28T11:29:36.920Z,1012.56
2022-07-28T11:30:37.073Z,1012.50
2022-07-28T11:31:36.922Z,1012.49
2022-07-28T11:32:44.039Z,1012.48
2022-07-28T11:33:37.870Z,1012.44
2022-07-28T11:34:37.930Z,1012.44
2022-07-28T11:35:36.908Z,1012.45
2022-07-28T11:36:37.122Z,1012.44
2022-07-28T11:37:36.883Z,1012.41
2022-07-28T11:38:36.914Z,1012.36
2022-07-28T11:39:43.360Z,1012.36
2022-07-28T11:40:37.855Z,1012.37
2022-07-28T11:41:36.921Z,1012.33
2022-07-28T11:42:36.810Z,1012.33
2022-07-28T11:43:38.901Z,1012.31
2022-07-28T11:44:36.867Z,1012.31
2022-07-28T11:45:38.494Z,1012.34
2022-07-28T11:46:37.591Z,1012.33
2022-07-28T11:47:36.743Z,1012.30
2022-07-28T11:48:36.762Z,1012.37
2022-07-28T11:49:36.860Z,1012.34
2022-07-28T11:50:36.765Z,1012.36
2022-07-28T11:51:51.307Z,1012.33
2022-07-28T11:52:37.736Z,1012.33
2022-07-28T11:53:36.703Z,1012.33
2022-07-28T11:54:36.755Z,1012.38
2022-07-28T11:55:55.580Z,1012.35
2022-07-28T11:56:37.828Z,1012.33
2022-07-28T11:57:36.662Z,1012.33
2022-07-28T11:58:36.636Z,1012.29
2022-07-28T11:59:37.407Z,1012.35
2022-07-28T12:00:36.631Z,1012.31
2022-07-28T12:01:38.347Z,1012.26
2022-07-28T12:02:36.784Z,1012.24
2022-07-28T12:03:49.202Z,1012.24
2022-07-28T12:04:37.820Z,1012.22
2022-07-28T12:05:41.880Z,1012.20